sensor_id;sensor_type;location;lat;lon;timestamp;pressure;altitude;pressure_sealevel;temperature;humidity
76732;BME280;65656;51.130;13.658;2023-01-09T00:02:28;97923.41;;;4.10;84.57
76732;BME280;65656;51.130;13.658;2023-01-09T00:06:31;97930.41;;;4.06;84.38
76732;BME280;65656;51.130;13.658;2023-01-09T00:10:32;97923.97;;;4.12;84.80
76732;BME280;65656;51.130;13.658;2023-01-09T00:14:33;97919.16;;;4.14;84.25
76732;BME280;65656;51.130;13.658;2023-01-09T00:18:36;97920.94;;;4.08;84.39
76732;BME280;65656;51.130;13.658;2023-01-09T00:22:39;97919.38;;;4.12;84.11
76732;BME280;65656;51.130;13.658;2023-01-09T00:26:41;97905.00;;;4.12;83.99
76732;BME280;65656;51.130;13.658;2023-01-09T00:30:42;97905.19;;;4.05;85.08
76732;BME280;65656;51.130;13.658;2023-01-09T00:34:43;97895.22;;;4.11;84.25
76732;BME280;65656;51.130;13.658;2023-01-09T00:38:46;97890.41;;;4.13;84.15
76732;BME280;65656;51.130;13.658;2023-01-09T00:42:51;97892.19;;;4.07;83.99
76732;BME280;65656;51.130;13.658;2023-01-09T00:46:55;97876.19;;;4.06;84.93
76732;BME280;65656;51.130;13.658;2023-01-09T00:50:59;97858.34;;;4.10;83.82
76732;BME280;65656;51.130;13.658;2023-01-09T00:55:02;97850.72;;;4.07;84.20
76732;BME280;65656;51.130;13.658;2023-01-09T00:59:05;97849.66;;;4.08;84.35
76732;BME280;65656;51.130;13.658;2023-01-09T01:03:07;97851.84;;;4.11;84.18
76732;BME280;65656;51.130;13.658;2023-01-09T01:07:08;97836.66;;;4.10;84.20
76732;BME280;65656;51.130;13.658;2023-01-09T01:11:11;97836.19;;;4.13;83.36
76732;BME280;65656;51.130;13.658;2023-01-09T01:15:13;97829.09;;;4.12;84.09
76732;BME280;65656;51.130;13.658;2023-01-09T01:19:14;97826.34;;;4.07;83.91
76732;BME280;65656;51.130;13.658;2023-01-09T01:23:16;97808.75;;;4.09;83.94
76732;BME280;65656;51.130;13.658;2023-01-09T01:27:18;97811.22;;;4.11;83.33
76732;BME280;65656;51.130;13.658;2023-01-09T01:31:20;97807.41;;;4.12;83.12
76732;BME280;65656;51.130;13.658;2023-01-09T01:35:21;97803.03;;;4.06;83.60
76732;BME280;65656;51.130;13.658;2023-01-09T01:39:23;97804.31;;;4.03;83.72
76732;BME280;65656;51.130;13.658;2023-01-09T01:43:26;97792.09;;;4.01;83.96
76732;BME280;65656;51.130;13.658;2023-01-09T01:47:36;97784.47;;;3.98;84.04
76732;BME280;65656;51.130;13.658;2023-01-09T01:51:40;97783.88;;;3.96;84.05
76732;BME280;65656;51.130;13.658;2023-01-09T01:55:44;97773.63;;;3.98;83.91
76732;BME280;65656;51.130;13.658;2023-01-09T01:59:50;97777.97;;;3.99;84.20
76732;BME280;65656;51.130;13.658;2023-01-09T02:03:54;97767.78;;;4.06;83.40
76732;BME280;65656;51.130;13.658;2023-01-09T02:07:57;97763.75;;;4.08;83.31
76732;BME280;65656;51.130;13.658;2023-01-09T02:11:58;97760.78;;;4.10;83.32
76732;BME280;65656;51.130;13.658;2023-01-09T02:16:14;97750.06;;;4.20;82.07
76732;BME280;65656;51.130;13.658;2023-01-09T02:20:37;97742.03;;;4.25;81.50
76732;BME280;65656;51.130;13.658;2023-01-09T02:25:03;97727.72;;;4.30;81.81
76732;BME280;65656;51.130;13.658;2023-01-09T02:29:32;97721.78;;;4.33;81.33
76732;BME280;65656;51.130;13.658;2023-01-09T02:33:49;97725.88;;;4.35;81.10
76732;BME280;65656;51.130;13.658;2023-01-09T02:38:05;97721.50;;;4.29;81.26
76732;BME280;65656;51.130;13.658;2023-01-09T02:42:14;97715.72;;;4.26;82.56
76732;BME280;65656;51.130;13.658;2023-01-09T02:46:18;97722.59;;;4.33;81.51
76732;BME280;65656;51.130;13.658;2023-01-09T02:50:23;97729.66;;;4.34;81.03
76732;BME280;65656;51.130;13.658;2023-01-09T02:54:35;97720.47;;;4.35;82.19
76732;BME280;65656;51.130;13.658;2023-01-09T02:58:58;97725.06;;;4.35;81.44
76732;BME280;65656;51.130;13.658;2023-01-09T03:03:09;97724.75;;;4.31;82.80
76732;BME280;65656;51.130;13.658;2023-01-09T03:07:19;97718.19;;;4.27;83.30
76732;BME280;65656;51.130;13.658;2023-01-09T03:11:25;97718.88;;;4.17;84.80
76732;BME280;65656;51.130;13.658;2023-01-09T03:15:33;97715.28;;;4.12;85.90
76732;BME280;65656;51.130;13.658;2023-01-09T03:19:34;97717.66;;;4.08;86.46
76732;BME280;65656;51.130;13.658;2023-01-09T03:23:52;97710.22;;;3.99;87.61
76732;BME280;65656;51.130;13.658;2023-01-09T03:27:56;97711.22;;;3.92;88.33
76732;BME280;65656;51.130;13.658;2023-01-09T03:31:58;97704.72;;;3.94;88.66
76732;BME280;65656;51.130;13.658;2023-01-09T03:36:00;97699.22;;;3.88;88.92
76732;BME280;65656;51.130;13.658;2023-01-09T03:40:03;97697.59;;;3.87;89.95
76732;BME280;65656;51.130;13.658;2023-01-09T03:44:05;97689.16;;;3.84;89.33
76732;BME280;65656;51.130;13.658;2023-01-09T03:48:06;97686.09;;;3.80;90.21
76732;BME280;65656;51.130;13.658;2023-01-09T03:52:08;97686.09;;;3.80;90.42
76732;BME280;65656;51.130;13.658;2023-01-09T03:56:10;97680.94;;;3.79;91.95
76732;BME280;65656;51.130;13.658;2023-01-09T04:00:12;97667.41;;;3.79;91.23
76732;BME280;65656;51.130;13.658;2023-01-09T04:04:14;97669.84;;;3.80;90.35
76732;BME280;65656;51.130;13.658;2023-01-09T04:08:16;97669.38;;;3.83;90.75
76732;BME280;65656;51.130;13.658;2023-01-09T04:12:19;97668.56;;;3.83;91.51
76732;BME280;65656;51.130;13.658;2023-01-09T04:16:20;97663.94;;;3.83;91.26
76732;BME280;65656;51.130;13.658;2023-01-09T04:20:22;97653.13;;;3.83;92.22
76732;BME280;65656;51.130;13.658;2023-01-09T04:24:23;97655.81;;;3.83;90.73
76732;BME280;65656;51.130;13.658;2023-01-09T04:28:26;97642.84;;;3.85;90.22
76732;BME280;65656;51.130;13.658;2023-01-09T04:32:27;97640.22;;;3.90;89.48
76732;BME280;65656;51.130;13.658;2023-01-09T04:36:29;97637.00;;;3.94;89.92
76732;BME280;65656;51.130;13.658;2023-01-09T04:40:30;97634.03;;;3.95;90.15
76732;BME280;65656;51.130;13.658;2023-01-09T04:44:33;97644.56;;;3.91;89.98
76732;BME280;65656;51.130;13.658;2023-01-09T04:48:34;97650.22;;;3.90;89.82
76732;BME280;65656;51.130;13.658;2023-01-09T04:52:36;97645.03;;;3.88;89.56
76732;BME280;65656;51.130;13.658;2023-01-09T04:56:39;97639.63;;;3.88;90.42
76732;BME280;65656;51.130;13.658;2023-01-09T05:00:42;97640.13;;;3.85;89.66
76732;BME280;65656;51.130;13.658;2023-01-09T05:04:43;97629.81;;;3.82;91.06
76732;BME280;65656;51.130;13.658;2023-01-09T05:08:45;97634.72;;;3.85;89.41
76732;BME280;65656;51.130;13.658;2023-01-09T05:12:46;97626.50;;;3.80;90.15
76732;BME280;65656;51.130;13.658;2023-01-09T05:16:49;97619.97;;;3.76;89.75
76732;BME280;65656;51.130;13.658;2023-01-09T05:20:50;97617.81;;;3.78;89.95
76732;BME280;65656;51.130;13.658;2023-01-09T05:24:52;97619.97;;;3.76;90.72
76732;BME280;65656;51.130;13.658;2023-01-09T05:28:54;97614.00;;;3.74;90.96
76732;BME280;65656;51.130;13.658;2023-01-09T05:32:57;97604.84;;;3.80;89.49
76732;BME280;65656;51.130;13.658;2023-01-09T05:36:58;97612.41;;;3.78;89.98
76732;BME280;65656;51.130;13.658;2023-01-09T05:40:59;97597.97;;;3.73;90.97
76732;BME280;65656;51.130;13.658;2023-01-09T05:45:01;97599.81;;;3.67;90.63
76732;BME280;65656;51.130;13.658;2023-01-09T05:49:04;97607.34;;;3.65;90.47
76732;BME280;65656;51.130;13.658;2023-01-09T05:53:05;97614.72;;;3.70;89.43
76732;BME280;65656;51.130;13.658;2023-01-09T05:57:06;97614.72;;;3.70;89.18
76732;BME280;65656;51.130;13.658;2023-01-09T06:01:08;97613.81;;;3.64;88.99
76732;BME280;65656;51.130;13.658;2023-01-09T06:05:11;97603.59;;;3.66;89.08
76732;BME280;65656;51.130;13.658;2023-01-09T06:09:12;97602.44;;;3.62;89.30
76732;BME280;65656;51.130;13.658;2023-01-09T06:13:14;97604.88;;;3.63;89.17
76732;BME280;65656;51.130;13.658;2023-01-09T06:17:15;97598.19;;;3.66;89.75
76732;BME280;65656;51.130;13.658;2023-01-09T06:21:18;97604.41;;;3.67;88.34
76732;BME280;65656;51.130;13.658;2023-01-09T06:25:20;97602.25;;;3.69;88.50
76732;BME280;65656;51.130;13.658;2023-01-09T06:29:22;97609.06;;;3.71;88.42
76732;BME280;65656;51.130;13.658;2023-01-09T06:33:23;97617.53;;;3.75;87.75
76732;BME280;65656;51.130;13.658;2023-01-09T06:37:26;97621.31;;;3.74;88.03
76732;BME280;65656;51.130;13.658;2023-01-09T06:41:27;97626.72;;;3.74;87.96
76732;BME280;65656;51.130;13.658;2023-01-09T06:45:29;97627.53;;;3.74;87.55
76732;BME280;65656;51.130;13.658;2023-01-09T06:49:30;97635.41;;;3.76;86.69
76732;BME280;65656;51.130;13.658;2023-01-09T06:53:33;97630.28;;;3.79;86.75
76732;BME280;65656;51.130;13.658;2023-01-09T06:57:34;97642.75;;;3.80;86.80
76732;BME280;65656;51.130;13.658;2023-01-09T07:01:36;97641.47;;;3.83;86.41
76732;BME280;65656;51.130;13.658;2023-01-09T07:05:40;97636.34;;;3.86;85.87
76732;BME280;65656;51.130;13.658;2023-01-09T07:09:43;97631.81;;;3.92;85.18
76732;BME280;65656;51.130;13.658;2023-01-09T07:13:44;97644.03;;;3.95;84.37
76732;BME280;65656;51.130;13.658;2023-01-09T07:17:47;97632.22;;;4.01;84.23
76732;BME280;65656;51.130;13.658;2023-01-09T07:21:49;97637.63;;;4.01;84.46
76732;BME280;65656;51.130;13.658;2023-01-09T07:25:52;97638.13;;;3.98;85.47
76732;BME280;65656;51.130;13.658;2023-01-09T07:29:53;97633.03;;;4.01;84.46
76732;BME280;65656;51.130;13.658;2023-01-09T07:33:55;97643.13;;;4.06;84.91
76732;BME280;65656;51.130;13.658;2023-01-09T07:37:56;97635.09;;;4.16;85.01
76732;BME280;65656;51.130;13.658;2023-01-09T07:41:59;97641.47;;;4.27;84.21
76732;BME280;65656;51.130;13.658;2023-01-09T07:46:00;97648.84;;;4.31;83.88
76732;BME280;65656;51.130;13.658;2023-01-09T07:50:02;97647.22;;;4.30;83.88
76732;BME280;65656;51.130;13.658;2023-01-09T07:54:04;97656.59;;;4.23;84.46
76732;BME280;65656;51.130;13.658;2023-01-09T07:58:07;97654.28;;;4.31;83.88
76732;BME280;65656;51.130;13.658;2023-01-09T08:02:08;97664.59;;;4.34;83.09
76732;BME280;65656;51.130;13.658;2023-01-09T08:06:10;97662.34;;;4.26;83.57
76732;BME280;65656;51.130;13.658;2023-01-09T08:10:11;97667.13;;;4.19;83.74
76732;BME280;65656;51.130;13.658;2023-01-09T08:14:14;97665.63;;;4.28;83.70
76732;BME280;65656;51.130;13.658;2023-01-09T08:18:16;97668.94;;;4.35;85.31
76732;BME280;65656;51.130;13.658;2023-01-09T08:22:17;97655.34;;;4.52;83.73
76732;BME280;65656;51.130;13.658;2023-01-09T08:26:18;97670.34;;;4.60;82.57
76732;BME280;65656;51.130;13.658;2023-01-09T08:30:21;97680.22;;;4.71;83.70
76732;BME280;65656;51.130;13.658;2023-01-09T08:34:23;97691.16;;;4.81;83.06
76732;BME280;65656;51.130;13.658;2023-01-09T08:38:24;97696.28;;;4.78;84.45
76732;BME280;65656;51.130;13.658;2023-01-09T08:42:25;97696.34;;;4.83;82.99
76732;BME280;65656;51.130;13.658;2023-01-09T08:46:28;97702.63;;;4.88;83.54
76732;BME280;65656;51.130;13.658;2023-01-09T08:50:30;97713.63;;;4.98;82.59
76732;BME280;65656;51.130;13.658;2023-01-09T08:54:31;97716.69;;;5.07;82.22
76732;BME280;65656;51.130;13.658;2023-01-09T08:58:32;97724.94;;;5.17;82.89
76732;BME280;65656;51.130;13.658;2023-01-09T09:02:35;97726.28;;;5.15;83.66
76732;BME280;65656;51.130;13.658;2023-01-09T09:06:37;97722.75;;;5.19;83.11
76732;BME280;65656;51.130;13.658;2023-01-09T09:10:38;97721.59;;;5.37;83.00
76732;BME280;65656;51.130;13.658;2023-01-09T09:14:40;97715.63;;;5.40;83.25
76732;BME280;65656;51.130;13.658;2023-01-09T09:18:42;97712.50;;;5.58;83.14
76732;BME280;65656;51.130;13.658;2023-01-09T09:22:44;97718.94;;;5.79;81.77
76732;BME280;65656;51.130;13.658;2023-01-09T09:26:46;97719.81;;;5.90;81.80
76732;BME280;65656;51.130;13.658;2023-01-09T09:30:47;97724.78;;;5.93;82.29
76732;BME280;65656;51.130;13.658;2023-01-09T09:34:50;97731.97;;;6.14;82.28
76732;BME280;65656;51.130;13.658;2023-01-09T09:38:51;97745.97;;;6.33;81.62
76732;BME280;65656;51.130;13.658;2023-01-09T09:43:07;97740.56;;;6.43;81.52
76732;BME280;65656;51.130;13.658;2023-01-09T09:47:25;97739.81;;;6.58;81.44
76732;BME280;65656;51.130;13.658;2023-01-09T09:51:37;97747.03;;;6.85;81.10
76732;BME280;65656;51.130;13.658;2023-01-09T09:55:44;97742.97;;;7.03;81.29
76732;BME280;65656;51.130;13.658;2023-01-09T09:59:47;97747.06;;;7.05;81.16
76732;BME280;65656;51.130;13.658;2023-01-09T10:03:50;97751.44;;;7.11;81.38
76732;BME280;65656;51.130;13.658;2023-01-09T10:07:56;97755.78;;;7.07;82.50
76732;BME280;65656;51.130;13.658;2023-01-09T10:12:25;97765.56;;;6.93;82.99
76732;BME280;65656;51.130;13.658;2023-01-09T10:16:37;97775.91;;;6.96;82.97
76732;BME280;65656;51.130;13.658;2023-01-09T10:20:47;97775.63;;;6.97;83.01
76732;BME280;65656;51.130;13.658;2023-01-09T10:25:00;97789.53;;;7.01;83.21
76732;BME280;65656;51.130;13.658;2023-01-09T10:29:31;97805.00;;;6.85;83.94
76732;BME280;65656;51.130;13.658;2023-01-09T10:33:47;97802.59;;;6.94;83.97
76732;BME280;65656;51.130;13.658;2023-01-09T10:37:57;97810.50;;;7.06;82.07
76732;BME280;65656;51.130;13.658;2023-01-09T10:42:08;97828.75;;;7.05;82.26
76732;BME280;65656;51.130;13.658;2023-01-09T10:46:14;97824.94;;;7.01;81.41
76732;BME280;65656;51.130;13.658;2023-01-09T10:50:20;97835.31;;;7.09;81.43
76732;BME280;65656;51.130;13.658;2023-01-09T10:54:22;97827.44;;;7.13;80.45
76732;BME280;65656;51.130;13.658;2023-01-09T10:58:26;97831.50;;;7.10;80.48
76732;BME280;65656;51.130;13.658;2023-01-09T11:02:29;97834.25;;;7.15;79.63
76732;BME280;65656;51.130;13.658;2023-01-09T11:06:39;97837.47;;;7.07;79.68
76732;BME280;65656;51.130;13.658;2023-01-09T11:10:46;97842.97;;;7.17;79.97
76732;BME280;65656;51.130;13.658;2023-01-09T11:14:49;97857.13;;;7.09;80.31
76732;BME280;65656;51.130;13.658;2023-01-09T11:18:52;97857.19;;;7.24;79.01
76732;BME280;65656;51.130;13.658;2023-01-09T11:22:56;97851.13;;;7.12;79.52
76732;BME280;65656;51.130;13.658;2023-01-09T11:27:18;97855.50;;;7.18;77.38
76732;BME280;65656;51.130;13.658;2023-01-09T11:31:21;97864.22;;;7.20;76.47
76732;BME280;65656;51.130;13.658;2023-01-09T11:35:27;97856.03;;;7.10;74.94
76732;BME280;65656;51.130;13.658;2023-01-09T11:39:30;97868.31;;;7.23;74.97
76732;BME280;65656;51.130;13.658;2023-01-09T11:43:34;97876.47;;;7.23;73.78
76732;BME280;65656;51.130;13.658;2023-01-09T11:47:39;97865.88;;;7.21;72.95
76732;BME280;65656;51.130;13.658;2023-01-09T11:51:41;97862.06;;;7.22;73.31
76732;BME280;65656;51.130;13.658;2023-01-09T11:55:44;97858.81;;;7.31;70.54
76732;BME280;65656;51.130;13.658;2023-01-09T11:59:46;97860.78;;;7.40;70.28
76732;BME280;65656;51.130;13.658;2023-01-09T12:04:08;97864.31;;;7.41;68.94
76732;BME280;65656;51.130;13.658;2023-01-09T12:08:18;97859.97;;;7.40;70.43
76732;BME280;65656;51.130;13.658;2023-01-09T12:12:26;97855.06;;;7.42;69.14
76732;BME280;65656;51.130;13.658;2023-01-09T12:16:34;97853.41;;;7.46;68.70
76732;BME280;65656;51.130;13.658;2023-01-09T12:20:49;97871.41;;;7.47;68.92
76732;BME280;65656;51.130;13.658;2023-01-09T12:25:10;97860.50;;;7.42;67.19
76732;BME280;65656;51.130;13.658;2023-01-09T12:29:28;97867.59;;;7.43;67.71
76732;BME280;65656;51.130;13.658;2023-01-09T12:33:41;97881.81;;;7.65;67.08
76732;BME280;65656;51.130;13.658;2023-01-09T12:38:13;97888.38;;;7.64;66.96
76732;BME280;65656;51.130;13.658;2023-01-09T12:42:27;97887.25;;;7.55;67.43
76732;BME280;65656;51.130;13.658;2023-01-09T12:46:35;97901.34;;;7.37;68.52
76732;BME280;65656;51.130;13.658;2023-01-09T12:51:02;97901.03;;;7.28;67.69
76732;BME280;65656;51.130;13.658;2023-01-09T12:55:14;97899.06;;;7.08;69.00
76732;BME280;65656;51.130;13.658;2023-01-09T12:59:28;97898.97;;;6.98;69.50
76732;BME280;65656;51.130;13.658;2023-01-09T13:03:35;97904.72;;;7.02;69.01
76732;BME280;65656;51.130;13.658;2023-01-09T13:07:41;97906.19;;;7.19;68.72
76732;BME280;65656;51.130;13.658;2023-01-09T13:11:52;97910.06;;;7.39;68.10
76732;BME280;65656;51.130;13.658;2023-01-09T13:15:56;97920.97;;;7.39;68.11
76732;BME280;65656;51.130;13.658;2023-01-09T13:19:58;97926.38;;;7.29;68.40
76732;BME280;65656;51.130;13.658;2023-01-09T13:24:05;97926.97;;;7.46;68.08
76732;BME280;65656;51.130;13.658;2023-01-09T13:28:16;97928.34;;;7.43;66.30
76732;BME280;65656;51.130;13.658;2023-01-09T13:32:33;97925.34;;;7.40;66.91
76732;BME280;65656;51.130;13.658;2023-01-09T13:36:37;97925.06;;;7.46;66.12
76732;BME280;65656;51.130;13.658;2023-01-09T13:40:39;97920.44;;;7.42;65.95
76732;BME280;65656;51.130;13.658;2023-01-09T13:44:43;97929.94;;;7.34;66.26
76732;BME280;65656;51.130;13.658;2023-01-09T13:48:45;97912.22;;;7.26;66.72
76732;BME280;65656;51.130;13.658;2023-01-09T13:52:47;97923.69;;;7.34;66.60
76732;BME280;65656;51.130;13.658;2023-01-09T13:57:23;97950.88;;;7.29;67.08
76732;BME280;65656;51.130;13.658;2023-01-09T14:01:43;97971.59;;;7.30;67.17
76732;BME280;65656;51.130;13.658;2023-01-09T14:06:11;97989.75;;;7.09;69.74
76732;BME280;65656;51.130;13.658;2023-01-09T14:10:21;97992.19;;;7.10;70.53
76732;BME280;65656;51.130;13.658;2023-01-09T14:14:27;97996.56;;;7.11;70.66
76732;BME280;65656;51.130;13.658;2023-01-09T14:18:31;97995.16;;;7.04;70.76
76732;BME280;65656;51.130;13.658;2023-01-09T14:22:34;97991.56;;;6.98;71.73
76732;BME280;65656;51.130;13.658;2023-01-09T14:26:57;97993.28;;;7.09;71.42
76732;BME280;65656;51.130;13.658;2023-01-09T14:31:08;97992.09;;;6.95;72.19
76732;BME280;65656;51.130;13.658;2023-01-09T14:35:26;97998.03;;;6.92;73.02
76732;BME280;65656;51.130;13.658;2023-01-09T14:39:28;98008.13;;;6.91;73.16
76732;BME280;65656;51.130;13.658;2023-01-09T14:43:40;98018.19;;;6.91;74.31
76732;BME280;65656;51.130;13.658;2023-01-09T14:47:46;98018.13;;;6.81;73.91
76732;BME280;65656;51.130;13.658;2023-01-09T14:51:52;98015.94;;;6.83;73.67
76732;BME280;65656;51.130;13.658;2023-01-09T14:55:54;98033.41;;;6.87;73.30
76732;BME280;65656;51.130;13.658;2023-01-09T14:59:57;98042.56;;;6.76;74.86
76732;BME280;65656;51.130;13.658;2023-01-09T15:04:01;98041.34;;;6.61;75.07
76732;BME280;65656;51.130;13.658;2023-01-09T15:08:05;98045.22;;;6.65;74.81
76732;BME280;65656;51.130;13.658;2023-01-09T15:12:08;98045.72;;;6.62;75.06
76732;BME280;65656;51.130;13.658;2023-01-09T15:16:16;98041.59;;;6.60;76.57
76732;BME280;65656;51.130;13.658;2023-01-09T15:20:22;98045.16;;;6.60;75.06
76732;BME280;65656;51.130;13.658;2023-01-09T15:24:27;98051.72;;;6.64;74.46
76732;BME280;65656;51.130;13.658;2023-01-09T15:28:31;98055.66;;;6.47;74.25
76732;BME280;65656;51.130;13.658;2023-01-09T15:32:33;98058.91;;;6.22;74.81
76732;BME280;65656;51.130;13.658;2023-01-09T15:36:36;98054.78;;;5.92;76.89
76732;BME280;65656;51.130;13.658;2023-01-09T15:40:39;98065.16;;;5.78;76.27
76732;BME280;65656;51.130;13.658;2023-01-09T15:44:42;98067.00;;;5.73;76.56
76732;BME280;65656;51.130;13.658;2023-01-09T15:48:52;98066.09;;;5.45;78.50
76732;BME280;65656;51.130;13.658;2023-01-09T15:52:55;98085.88;;;5.24;79.38
76732;BME280;65656;51.130;13.658;2023-01-09T16:01:40;98078.88;;;4.94;80.83
76732;BME280;65656;51.130;13.658;2023-01-09T16:05:42;98079.94;;;4.77;80.90
76732;BME280;65656;51.130;13.658;2023-01-09T16:09:45;98091.63;;;4.77;81.27
76732;BME280;65656;51.130;13.658;2023-01-09T16:13:47;98083.38;;;5.06;80.11
76732;BME280;65656;51.130;13.658;2023-01-09T16:18:18;98087.59;;;4.96;80.72
76732;BME280;65656;51.130;13.658;2023-01-09T16:22:22;98099.09;;;4.87;80.49
76732;BME280;65656;51.130;13.658;2023-01-09T16:26:25;98098.03;;;4.71;81.43
76732;BME280;65656;51.130;13.658;2023-01-09T16:30:27;98095.06;;;4.89;80.16
76732;BME280;65656;51.130;13.658;2023-01-09T16:34:32;98099.75;;;4.77;80.13
76732;BME280;65656;51.130;13.658;2023-01-09T16:38:34;98109.38;;;4.68;81.20
76732;BME280;65656;51.130;13.658;2023-01-09T16:42:35;98109.53;;;4.61;81.55
76732;BME280;65656;51.130;13.658;2023-01-09T16:46:38;98120.50;;;4.26;82.36
76732;BME280;65656;51.130;13.658;2023-01-09T16:50:42;98136.75;;;3.98;83.98
76732;BME280;65656;51.130;13.658;2023-01-09T16:54:43;98134.88;;;3.86;84.64
76732;BME280;65656;51.130;13.658;2023-01-09T16:58:45;98133.97;;;4.21;83.92
76732;BME280;65656;51.130;13.658;2023-01-09T17:02:47;98122.75;;;4.29;82.38
76732;BME280;65656;51.130;13.658;2023-01-09T17:06:50;98127.19;;;4.35;82.45
76732;BME280;65656;51.130;13.658;2023-01-09T17:10:53;98133.47;;;4.24;82.90
76732;BME280;65656;51.130;13.658;2023-01-09T17:14:55;98140.50;;;3.97;84.22
76732;BME280;65656;51.130;13.658;2023-01-09T17:18:56;98141.94;;;3.87;83.94
76732;BME280;65656;51.130;13.658;2023-01-09T17:22:59;98144.06;;;3.85;84.57
76732;BME280;65656;51.130;13.658;2023-01-09T17:27:01;98151.63;;;3.83;84.60
76732;BME280;65656;51.130;13.658;2023-01-09T17:31:05;98155.38;;;3.82;84.41
76732;BME280;65656;51.130;13.658;2023-01-09T17:35:08;98156.44;;;3.81;84.46
76732;BME280;65656;51.130;13.658;2023-01-09T17:39:15;98172.47;;;3.71;84.73
76732;BME280;65656;51.130;13.658;2023-01-09T17:43:16;98156.34;;;3.76;84.40
76732;BME280;65656;51.130;13.658;2023-01-09T17:47:18;98157.38;;;3.99;82.87
76732;BME280;65656;51.130;13.658;2023-01-09T17:51:19;98173.25;;;3.95;82.73
76732;BME280;65656;51.130;13.658;2023-01-09T17:55:22;98183.41;;;3.76;83.32
76732;BME280;65656;51.130;13.658;2023-01-09T17:59:23;98195.69;;;3.67;84.45
76732;BME280;65656;51.130;13.658;2023-01-09T18:03:27;98197.41;;;3.50;84.45
76732;BME280;65656;51.130;13.658;2023-01-09T18:07:29;98206.72;;;3.54;85.33
76732;BME280;65656;51.130;13.658;2023-01-09T18:11:32;98208.16;;;3.68;84.05
76732;BME280;65656;51.130;13.658;2023-01-09T18:15:33;98212.75;;;3.79;84.49
76732;BME280;65656;51.130;13.658;2023-01-09T18:19:35;98210.50;;;4.00;82.90
76732;BME280;65656;51.130;13.658;2023-01-09T18:23:36;98219.88;;;4.32;81.86
76732;BME280;65656;51.130;13.658;2023-01-09T18:27:39;98227.94;;;4.56;81.10
76732;BME280;65656;51.130;13.658;2023-01-09T18:31:41;98214.84;;;4.93;79.34
76732;BME280;65656;51.130;13.658;2023-01-09T18:35:43;98206.25;;;4.84;78.88
76732;BME280;65656;51.130;13.658;2023-01-09T18:39:45;98213.50;;;4.95;78.78
76732;BME280;65656;51.130;13.658;2023-01-09T18:43:48;98212.50;;;4.85;79.00
76732;BME280;65656;51.130;13.658;2023-01-09T18:47:50;98222.84;;;4.99;78.33
76732;BME280;65656;51.130;13.658;2023-01-09T18:51:51;98214.09;;;4.97;78.44
76732;BME280;65656;51.130;13.658;2023-01-09T18:55:53;98213.69;;;5.06;78.53
76732;BME280;65656;51.130;13.658;2023-01-09T18:59:55;98207.63;;;4.98;78.69
76732;BME280;65656;51.130;13.658;2023-01-09T19:03:58;98212.25;;;5.15;78.23
76732;BME280;65656;51.130;13.658;2023-01-09T19:08:00;98211.91;;;5.28;77.31
76732;BME280;65656;51.130;13.658;2023-01-09T19:12:01;98207.81;;;5.42;76.04
76732;BME280;65656;51.130;13.658;2023-01-09T19:16:06;98213.41;;;5.36;76.75
76732;BME280;65656;51.130;13.658;2023-01-09T19:20:09;98226.16;;;5.35;76.60
76732;BME280;65656;51.130;13.658;2023-01-09T19:24:11;98230.06;;;5.39;77.13
76732;BME280;65656;51.130;13.658;2023-01-09T19:28:12;98249.13;;;5.44;76.21
76732;BME280;65656;51.130;13.658;2023-01-09T19:32:15;98250.41;;;5.53;75.78
76732;BME280;65656;51.130;13.658;2023-01-09T19:36:16;98249.63;;;5.41;76.37
76732;BME280;65656;51.130;13.658;2023-01-09T19:40:18;98256.81;;;5.47;75.36
76732;BME280;65656;51.130;13.658;2023-01-09T19:44:19;98266.75;;;5.58;75.72
76732;BME280;65656;51.130;13.658;2023-01-09T19:48:23;98279.13;;;5.49;75.96
76732;BME280;65656;51.130;13.658;2023-01-09T19:52:24;98278.94;;;5.39;76.59
76732;BME280;65656;51.130;13.658;2023-01-09T19:56:27;98282.41;;;5.51;75.80
76732;BME280;65656;51.130;13.658;2023-01-09T20:00:29;98289.31;;;5.59;75.48
76732;BME280;65656;51.130;13.658;2023-01-09T20:04:32;98299.69;;;5.45;75.27
76732;BME280;65656;51.130;13.658;2023-01-09T20:08:33;98300.34;;;5.52;75.43
76732;BME280;65656;51.130;13.658;2023-01-09T20:12:34;98305.78;;;5.52;75.50
76732;BME280;65656;51.130;13.658;2023-01-09T20:16:36;98327.19;;;5.49;75.11
76732;BME280;65656;51.130;13.658;2023-01-09T20:20:39;98339.66;;;5.33;76.80
76732;BME280;65656;51.130;13.658;2023-01-09T20:24:39;98348.31;;;5.30;76.29
76732;BME280;65656;51.130;13.658;2023-01-09T20:28:40;98354.66;;;5.36;76.09
76732;BME280;65656;51.130;13.658;2023-01-09T20:32:42;98366.81;;;5.33;76.39
76732;BME280;65656;51.130;13.658;2023-01-09T20:36:45;98375.22;;;5.31;76.12
76732;BME280;65656;51.130;13.658;2023-01-09T20:40:46;98372.25;;;5.33;75.78
76732;BME280;65656;51.130;13.658;2023-01-09T20:44:47;98376.72;;;5.39;75.73
76732;BME280;65656;51.130;13.658;2023-01-09T20:48:49;98384.97;;;5.44;75.55
76732;BME280;65656;51.130;13.658;2023-01-09T20:52:52;98387.69;;;5.44;75.48
76732;BME280;65656;51.130;13.658;2023-01-09T20:56:53;98389.84;;;5.59;74.46
76732;BME280;65656;51.130;13.658;2023-01-09T21:00:54;98393.91;;;5.56;75.47
76732;BME280;65656;51.130;13.658;2023-01-09T21:04:56;98394.22;;;5.60;75.23
76732;BME280;65656;51.130;13.658;2023-01-09T21:08:59;98397.50;;;5.45;74.79
76732;BME280;65656;51.130;13.658;2023-01-09T21:13:00;98403.31;;;5.37;75.79
76732;BME280;65656;51.130;13.658;2023-01-09T21:17:02;98404.47;;;5.41;75.78
76732;BME280;65656;51.130;13.658;2023-01-09T21:21:04;98410.97;;;5.40;76.83
76732;BME280;65656;51.130;13.658;2023-01-09T21:25:08;98418.88;;;5.42;75.40
76732;BME280;65656;51.130;13.658;2023-01-09T21:29:11;98419.56;;;5.49;75.32
76732;BME280;65656;51.130;13.658;2023-01-09T21:33:12;98428.91;;;5.41;76.04
76732;BME280;65656;51.130;13.658;2023-01-09T21:37:14;98431.44;;;5.31;75.43
76732;BME280;65656;51.130;13.658;2023-01-09T21:41:17;98441.03;;;5.22;75.83